createdAt,value
2019-05-20T00:00:06.688Z,17.46
2019-05-20T00:02:37.362Z,17.44
2019-05-20T00:05:08.399Z,17.45
2019-05-20T00:07:39.133Z,17.39
2019-05-20T00:10:09.993Z,17.28
2019-05-20T00:12:41.009Z,17.28
2019-05-20T00:15:14.710Z,17.25
2019-05-20T00:17:45.335Z,17.22
2019-05-20T00:20:17.506Z,17.24
2019-05-20T00:22:48.446Z,17.22
2019-05-20T00:25:19.785Z,17.23
2019-05-20T00:27:50.543Z,17.22
2019-05-20T00:30:21.360Z,17.25
2019-05-20T00:32:52.563Z,17.30
2019-05-20T00:35:23.587Z,17.23
2019-05-20T00:37:54.313Z,17.19
2019-05-20T00:40:25.108Z,17.03
2019-05-20T00:42:56.356Z,16.99
2019-05-20T00:45:27.803Z,17.02
2019-05-20T00:47:58.232Z,17.01
2019-05-20T00:50:29.267Z,16.95
2019-05-20T00:53:00.311Z,16.98
2019-05-20T00:55:32.665Z,16.97
2019-05-20T00:58:04.421Z,17.07
2019-05-20T01:00:34.991Z,17.05
2019-05-20T01:03:05.795Z,17.06
2019-05-20T01:05:36.734Z,17.00
2019-05-20T01:08:09.212Z,16.99
2019-05-20T01:10:39.959Z,17.05
2019-05-20T01:13:10.981Z,17.01
2019-05-20T01:15:42.189Z,16.98
2019-05-20T01:18:13.573Z,16.87
2019-05-20T01:20:44.787Z,16.82
2019-05-20T01:23:15.365Z,16.79
2019-05-20T01:25:46.172Z,16.73
2019-05-20T01:28:17.521Z,16.73
2019-05-20T01:30:48.458Z,16.70
2019-05-20T01:33:19.700Z,16.66
2019-05-20T01:35:49.996Z,16.67
2019-05-20T01:38:20.859Z,16.66
2019-05-20T01:40:54.254Z,16.73
2019-05-20T01:43:25.099Z,16.75
2019-05-20T01:45:55.825Z,16.79
2019-05-20T01:48:28.606Z,16.77
2019-05-20T01:50:59.135Z,16.77
2019-05-20T01:53:29.969Z,16.74
2019-05-20T01:56:00.805Z,16.78
2019-05-20T01:58:31.952Z,16.75
2019-05-20T02:01:03.190Z,16.75
2019-05-20T02:03:33.923Z,16.76
2019-05-20T02:06:04.759Z,16.79
2019-05-20T02:08:35.493Z,16.80
2019-05-20T02:11:06.328Z,16.80
2019-05-20T02:13:51.195Z,16.79
2019-05-20T02:16:24.280Z,16.87
2019-05-20T02:18:55.030Z,17.02
2019-05-20T02:21:25.578Z,17.05
2019-05-20T02:23:58.772Z,17.03
2019-05-20T02:26:29.560Z,17.03
2019-05-20T02:29:00.261Z,17.03
2019-05-20T02:31:31.332Z,17.01
2019-05-20T02:34:02.174Z,16.99
2019-05-20T02:36:33.106Z,16.96
2019-05-20T02:39:06.509Z,16.99
2019-05-20T02:41:37.247Z,17.02
2019-05-20T02:44:07.863Z,17.06
2019-05-20T02:46:38.235Z,17.14
2019-05-20T02:49:10.047Z,17.22
2019-05-20T02:51:41.085Z,17.31
2019-05-20T02:54:15.433Z,17.37
2019-05-20T02:56:46.334Z,17.38
2019-05-20T02:59:17.184Z,17.36
2019-05-20T03:01:47.623Z,17.41
2019-05-20T03:04:19.239Z,17.38
2019-05-20T03:06:50.398Z,17.28
2019-05-20T03:09:23.382Z,17.28
2019-05-20T03:11:54.072Z,17.31
2019-05-20T03:14:25.260Z,17.34
2019-05-20T03:16:55.849Z,17.40
2019-05-20T03:19:26.930Z,17.41
2019-05-20T03:21:58.972Z,17.39
2019-05-20T03:24:30.112Z,17.42
2019-05-20T03:27:00.928Z,17.43
2019-05-20T03:29:32.120Z,17.45
2019-05-20T03:32:03.797Z,17.52
2019-05-20T03:34:48.333Z,17.57
2019-05-20T03:37:06.771Z,17.71
2019-05-20T03:39:39.332Z,17.74
2019-05-20T03:42:10.654Z,17.80
2019-05-20T03:44:41.086Z,17.78
2019-05-20T03:47:12.352Z,17.82
2019-05-20T03:49:43.412Z,17.94
2019-05-20T03:52:16.583Z,18.00
2019-05-20T03:54:47.529Z,17.96
2019-05-20T03:57:20.714Z,18.12
2019-05-20T03:59:52.261Z,18.19
2019-05-20T04:02:23.508Z,18.22
2019-05-20T04:05:02.038Z,18.22
2019-05-20T04:07:28.144Z,18.28
2019-05-20T04:09:59.096Z,18.32
2019-05-20T04:12:30.146Z,18.37
2019-05-20T04:15:03.274Z,18.43
2019-05-20T04:17:34.269Z,18.50
2019-05-20T04:20:07.745Z,18.55
2019-05-20T04:22:38.279Z,18.61
2019-05-20T04:25:09.191Z,18.67
2019-05-20T04:27:40.530Z,18.73
2019-05-20T04:30:12.724Z,18.83
2019-05-20T04:32:43.673Z,18.84
2019-05-20T04:35:22.315Z,18.90
2019-05-20T04:37:47.509Z,18.99
2019-05-20T04:40:20.268Z,19.09
2019-05-20T04:42:52.733Z,19.25
2019-05-20T04:45:23.431Z,19.32
2019-05-20T04:47:54.206Z,19.40
2019-05-20T04:50:25.405Z,19.40
2019-05-20T04:52:56.243Z,19.55
2019-05-20T04:55:29.487Z,19.63
2019-05-20T04:58:03.881Z,19.72
2019-05-20T05:00:46.213Z,19.88
2019-05-20T05:03:17.345Z,20.00
2019-05-20T05:05:48.988Z,20.17
2019-05-20T05:08:20.824Z,20.30
2019-05-20T05:10:51.893Z,20.43
2019-05-20T05:13:24.380Z,20.49
2019-05-20T05:15:54.805Z,20.65
2019-05-20T05:18:25.786Z,20.80
2019-05-20T05:20:56.769Z,20.95
2019-05-20T05:23:28.126Z,21.05
2019-05-20T05:25:59.154Z,21.15
2019-05-20T05:28:30.307Z,21.15
2019-05-20T05:31:00.926Z,21.20
2019-05-20T05:33:32.065Z,21.36
2019-05-20T05:36:04.545Z,21.47
2019-05-20T05:38:35.269Z,21.69
2019-05-20T05:41:06.516Z,21.86
2019-05-20T05:43:38.168Z,21.96
2019-05-20T05:46:09.070Z,22.03
2019-05-20T05:48:40.148Z,22.23
2019-05-20T05:51:11.066Z,22.12
2019-05-20T05:53:42.332Z,22.13
2019-05-20T05:56:13.381Z,22.21
2019-05-20T05:58:44.409Z,22.22
2019-05-20T06:01:16.474Z,22.32
2019-05-20T06:03:47.614Z,22.45
2019-05-20T06:06:18.460Z,22.59
2019-05-20T06:08:51.341Z,22.72
2019-05-20T06:11:24.381Z,22.90
2019-05-20T06:13:55.034Z,23.05
2019-05-20T06:16:36.046Z,23.21
2019-05-20T06:18:58.286Z,23.17
2019-05-20T06:21:29.807Z,23.25
2019-05-20T06:24:00.698Z,23.29
2019-05-20T06:26:31.893Z,23.46
2019-05-20T06:29:04.155Z,23.72
2019-05-20T06:31:35.113Z,23.95
2019-05-20T06:34:07.477Z,24.12
2019-05-20T06:36:40.588Z,24.07
2019-05-20T06:39:13.611Z,24.12
2019-05-20T06:41:44.576Z,24.30
2019-05-20T06:44:16.129Z,24.35
2019-05-20T06:46:47.051Z,24.42
2019-05-20T06:49:18.110Z,24.33
2019-05-20T06:51:48.641Z,24.53
2019-05-20T06:54:20.825Z,24.66
2019-05-20T06:56:53.904Z,24.81
2019-05-20T06:59:24.522Z,24.88
2019-05-20T07:01:55.777Z,24.69
2019-05-20T07:04:28.134Z,24.93
2019-05-20T07:07:12.475Z,25.07
2019-05-20T07:09:38.588Z,25.03
2019-05-20T07:12:10.488Z,25.04
2019-05-20T07:14:45.734Z,25.38
2019-05-20T07:17:20.394Z,25.46
2019-05-20T07:19:52.024Z,25.32
2019-05-20T07:22:27.490Z,25.48
2019-05-20T07:25:02.509Z,25.69
2019-05-20T07:27:35.035Z,25.82
2019-05-20T07:30:07.719Z,25.90
2019-05-20T07:32:40.535Z,26.02
2019-05-20T07:35:30.029Z,26.12
2019-05-20T07:37:53.557Z,26.24
2019-05-20T07:40:33.445Z,26.19
2019-05-20T07:43:08.818Z,26.01
2019-05-20T07:45:50.031Z,26.08
2019-05-20T07:48:25.073Z,26.18
2019-05-20T07:51:03.732Z,26.50
2019-05-20T07:56:35.969Z,26.68
2019-05-20T07:59:14.854Z,26.89
2019-05-20T08:01:49.928Z,26.77
2019-05-20T08:04:21.400Z,27.10
2019-05-20T08:06:54.444Z,26.92
2019-05-20T08:09:25.429Z,26.99
2019-05-20T08:11:56.627Z,27.09
2019-05-20T08:14:29.342Z,27.24
2019-05-20T08:17:00.250Z,27.49
2019-05-20T08:19:31.781Z,27.29
2019-05-20T08:22:05.704Z,27.28
2019-05-20T08:24:40.422Z,27.47
2019-05-20T08:27:13.546Z,27.42
2019-05-20T08:29:46.515Z,27.58
2019-05-20T08:32:19.227Z,27.45
2019-05-20T08:34:50.726Z,27.60
2019-05-20T08:37:21.665Z,27.56
2019-05-20T08:39:53.244Z,27.67
2019-05-20T08:42:23.882Z,28.17
2019-05-20T08:44:58.028Z,28.49
2019-05-20T08:47:31.868Z,28.70
2019-05-20T08:53:28.321Z,28.68
2019-05-20T08:56:02.670Z,28.99
2019-05-20T08:58:33.682Z,29.22
2019-05-20T09:01:04.775Z,29.74
2019-05-20T09:03:35.556Z,29.67
2019-05-20T09:06:06.680Z,29.71
2019-05-20T09:08:37.923Z,29.89
2019-05-20T09:11:09.237Z,30.12
2019-05-20T09:13:39.798Z,29.95
2019-05-20T09:16:12.169Z,30.28
2019-05-20T09:18:43.080Z,30.71
2019-05-20T09:21:14.343Z,30.67
2019-05-20T09:23:46.214Z,30.73
2019-05-20T09:26:18.791Z,30.55
2019-05-20T09:28:49.530Z,30.97
2019-05-20T09:31:23.228Z,31.02
2019-05-20T09:33:55.237Z,31.47
2019-05-20T09:36:26.217Z,31.17
2019-05-20T09:38:58.482Z,31.64
2019-05-20T09:41:29.259Z,31.47
2019-05-20T09:44:00.569Z,31.79
2019-05-20T09:46:32.536Z,31.91
2019-05-20T09:49:04.839Z,32.18
2019-05-20T09:51:35.893Z,32.21
2019-05-20T09:54:07.907Z,32.59
2019-05-20T09:56:38.663Z,32.93
2019-05-20T09:59:09.383Z,33.19
2019-05-20T10:01:40.538Z,32.99
2019-05-20T10:04:12.186Z,32.54
2019-05-20T10:06:46.706Z,33.03
2019-05-20T10:09:17.629Z,32.78
2019-05-20T10:11:49.908Z,33.00
2019-05-20T10:14:25.740Z,33.33
2019-05-20T10:16:59.058Z,33.51
2019-05-20T10:19:30.085Z,34.21
2019-05-20T10:22:00.712Z,34.07
2019-05-20T10:24:31.654Z,33.93
2019-05-20T10:27:04.121Z,33.86
2019-05-20T10:29:36.279Z,33.65
2019-05-20T10:32:07.238Z,34.26
2019-05-20T10:34:39.101Z,34.60
2019-05-20T10:37:10.219Z,34.51
2019-05-20T10:39:43.625Z,34.64
2019-05-20T10:42:14.131Z,34.45
2019-05-20T10:44:45.648Z,34.77
2019-05-20T10:47:16.370Z,35.25
2019-05-20T10:49:47.171Z,34.77
2019-05-20T10:52:18.204Z,35.39
2019-05-20T10:54:49.041Z,35.50
2019-05-20T10:57:20.795Z,35.13
2019-05-20T10:59:52.571Z,35.31
2019-05-20T11:02:23.389Z,35.93
2019-05-20T11:04:56.435Z,36.27
2019-05-20T11:07:27.125Z,36.46
2019-05-20T11:09:58.043Z,36.60
2019-05-20T11:12:29.608Z,37.03
2019-05-20T11:15:00.785Z,37.45
2019-05-20T11:17:32.041Z,37.92
2019-05-20T11:20:03.348Z,37.68
2019-05-20T11:22:34.172Z,37.62
2019-05-20T11:25:07.935Z,37.98
2019-05-20T11:27:38.882Z,37.86
2019-05-20T11:30:10.995Z,37.95
2019-05-20T11:32:43.888Z,38.30
2019-05-20T11:35:16.270Z,37.98
2019-05-20T11:37:46.853Z,37.23
2019-05-20T11:40:19.134Z,37.26
2019-05-20T11:42:49.964Z,37.92
2019-05-20T11:45:22.308Z,38.43
2019-05-20T11:47:52.976Z,38.89
2019-05-20T11:50:24.010Z,39.03
2019-05-20T11:52:54.548Z,39.15
2019-05-20T11:55:26.320Z,39.26
2019-05-20T11:58:14.532Z,39.54
2019-05-20T12:00:31.243Z,39.25
2019-05-20T12:03:03.013Z,38.60
2019-05-20T12:05:33.729Z,38.15
2019-05-20T12:08:04.773Z,38.44
2019-05-20T12:10:36.624Z,38.84
2019-05-20T12:13:07.358Z,39.25
2019-05-20T12:15:38.304Z,38.93
2019-05-20T12:18:10.696Z,39.42
2019-05-20T12:20:41.627Z,38.98
2019-05-20T12:23:15.519Z,39.01
2019-05-20T12:25:46.580Z,39.21
2019-05-20T12:28:17.716Z,38.42
2019-05-20T12:30:49.047Z,39.02
2019-05-20T12:33:20.043Z,38.99
2019-05-20T12:35:52.870Z,39.38
2019-05-20T12:38:24.985Z,38.55
2019-05-20T12:40:56.066Z,38.96
2019-05-20T12:43:26.961Z,39.11
2019-05-20T12:45:58.280Z,39.22
2019-05-20T12:48:29.383Z,38.72
2019-05-20T12:51:02.001Z,39.74
2019-05-20T12:53:33.760Z,39.74
2019-05-20T12:56:05.504Z,39.56
2019-05-20T12:58:36.327Z,39.39
2019-05-20T13:01:07.175Z,39.13
2019-05-20T13:03:38.101Z,39.84
2019-05-20T13:06:09.663Z,39.84
2019-05-20T13:08:42.756Z,39.94
2019-05-20T13:11:14.838Z,39.94
2019-05-20T13:13:45.755Z,39.59
2019-05-20T13:16:16.986Z,40.08
2019-05-20T13:18:55.906Z,40.02
2019-05-20T13:21:21.814Z,40.02
2019-05-20T13:23:52.679Z,39.86
2019-05-20T13:26:23.500Z,39.45
2019-05-20T13:28:54.228Z,39.43
2019-05-20T13:31:25.394Z,39.52
2019-05-20T13:33:56.443Z,39.49
2019-05-20T13:36:29.917Z,39.59
2019-05-20T13:39:00.544Z,39.67
2019-05-20T13:41:33.330Z,38.73
2019-05-20T13:44:04.155Z,39.40
2019-05-20T13:46:39.037Z,39.36
2019-05-20T13:49:10.242Z,39.70
2019-05-20T13:51:42.494Z,39.78
2019-05-20T13:54:14.863Z,40.35
2019-05-20T13:56:45.422Z,40.35
2019-05-20T13:59:16.537Z,39.80
2019-05-20T14:01:47.364Z,39.36
2019-05-20T14:04:19.449Z,39.01
2019-05-20T14:06:50.899Z,39.23
2019-05-20T14:09:22.840Z,39.08
2019-05-20T14:11:54.394Z,38.20
2019-05-20T14:14:25.090Z,38.35
2019-05-20T14:16:58.960Z,38.60
2019-05-20T14:19:30.485Z,38.15
2019-05-20T14:22:03.367Z,38.15
2019-05-20T14:24:36.324Z,38.61
2019-05-20T14:27:10.476Z,38.69
2019-05-20T14:29:41.414Z,37.86
2019-05-20T14:32:12.159Z,38.31
2019-05-20T14:34:43.535Z,38.36
2019-05-20T14:37:16.378Z,38.17
2019-05-20T14:39:47.019Z,37.78
2019-05-20T14:42:19.268Z,37.92
2019-05-20T14:44:50.198Z,37.92
2019-05-20T14:47:21.064Z,37.70
2019-05-20T14:49:53.973Z,37.32
2019-05-20T14:52:24.872Z,37.27
2019-05-20T14:54:56.674Z,37.54
2019-05-20T14:57:28.080Z,37.54
2019-05-20T14:59:58.933Z,37.73
2019-05-20T15:02:31.275Z,37.16
2019-05-20T15:05:02.565Z,37.51
2019-05-20T15:07:33.454Z,36.88
2019-05-20T15:10:09.212Z,36.88
2019-05-20T15:12:40.152Z,36.83
2019-05-20T15:15:12.105Z,36.62
2019-05-20T15:17:43.156Z,36.49
2019-05-20T15:20:15.717Z,36.41
2019-05-20T15:22:46.345Z,36.39
2019-05-20T15:25:17.592Z,35.67
2019-05-20T15:27:49.926Z,35.55
2019-05-20T15:30:22.028Z,35.44
2019-05-20T15:32:54.883Z,35.46
2019-05-20T15:35:25.693Z,35.28
2019-05-20T15:37:57.008Z,35.10
2019-05-20T15:40:29.480Z,35.08
2019-05-20T15:43:01.018Z,35.08
2019-05-20T15:45:33.292Z,35.14
2019-05-20T15:48:05.743Z,35.09
2019-05-20T15:50:36.897Z,35.01
2019-05-20T15:53:11.833Z,34.63
2019-05-20T15:55:40.819Z,34.43
2019-05-20T15:58:15.279Z,33.97
2019-05-20T16:00:47.932Z,34.15
2019-05-20T16:03:19.481Z,33.30
2019-05-20T16:05:50.393Z,33.48
2019-05-20T16:08:22.477Z,33.37
2019-05-20T16:10:53.417Z,32.80
2019-05-20T16:13:26.200Z,32.66
2019-05-20T16:15:57.270Z,32.82
2019-05-20T16:18:29.965Z,32.17
2019-05-20T16:21:00.389Z,31.97
2019-05-20T16:23:33.978Z,31.61
2019-05-20T16:26:04.795Z,31.31
2019-05-20T16:28:35.806Z,31.20
2019-05-20T16:31:06.247Z,31.22
2019-05-20T16:33:38.009Z,30.73
2019-05-20T16:36:11.178Z,30.40
2019-05-20T16:38:42.871Z,30.15
2019-05-20T16:41:13.666Z,29.82
2019-05-20T16:43:45.218Z,29.66
2019-05-20T16:46:18.244Z,29.47
2019-05-20T16:48:50.516Z,29.26
2019-05-20T16:51:22.809Z,29.17
2019-05-20T16:53:53.376Z,28.86
2019-05-20T16:56:24.216Z,28.40
2019-05-20T16:58:54.942Z,28.04
2019-05-20T17:01:25.677Z,27.65
2019-05-20T17:03:59.722Z,27.43
2019-05-20T17:06:30.647Z,27.20
2019-05-20T17:09:01.751Z,26.60
2019-05-20T17:11:34.879Z,26.23
2019-05-20T17:14:10.405Z,25.98
2019-05-20T17:16:41.337Z,25.85
2019-05-20T17:19:13.915Z,25.65
2019-05-20T17:21:46.489Z,25.44
2019-05-20T17:24:20.011Z,25.25
2019-05-20T17:26:52.746Z,25.28
2019-05-20T17:29:24.731Z,25.31
2019-05-20T17:31:55.666Z,25.13
2019-05-20T17:34:27.787Z,24.97
2019-05-20T17:36:58.639Z,24.74
2019-05-20T17:39:31.660Z,24.61
2019-05-20T17:42:03.611Z,24.55
2019-05-20T17:44:37.725Z,24.37
2019-05-20T17:47:09.588Z,24.30
2019-05-20T17:49:41.031Z,24.15
2019-05-20T17:52:12.889Z,24.12
2019-05-20T17:54:43.901Z,24.03
2019-05-20T17:57:15.483Z,24.13
2019-05-20T17:59:48.541Z,24.12
2019-05-20T18:02:20.951Z,24.04
2019-05-20T18:04:54.132Z,23.91
2019-05-20T18:07:28.037Z,23.79
2019-05-20T18:10:01.372Z,23.81
2019-05-20T18:12:32.598Z,23.62
2019-05-20T18:15:04.839Z,23.72
2019-05-20T18:17:35.777Z,23.53
2019-05-20T18:20:07.646Z,23.35
2019-05-20T18:22:40.430Z,23.26
2019-05-20T18:25:14.641Z,23.17
2019-05-20T18:27:46.496Z,23.20
2019-05-20T18:30:18.253Z,23.04
2019-05-20T18:32:48.772Z,22.94
2019-05-20T18:35:22.179Z,22.87
2019-05-20T18:37:55.562Z,22.83
2019-05-20T18:40:26.420Z,22.75
2019-05-20T18:43:00.527Z,22.70
2019-05-20T18:45:31.558Z,22.62
2019-05-20T18:48:05.251Z,22.55
2019-05-20T18:50:37.422Z,22.50
2019-05-20T18:53:09.228Z,22.46
2019-05-20T18:55:39.706Z,22.44
2019-05-20T18:58:12.999Z,22.46
2019-05-20T19:00:45.224Z,22.42
2019-05-20T19:03:17.432Z,22.43
2019-05-20T19:05:49.302Z,22.38
2019-05-20T19:08:19.919Z,22.33
2019-05-20T19:10:52.935Z,22.27
2019-05-20T19:13:23.843Z,22.22
2019-05-20T19:15:54.633Z,22.16
2019-05-20T19:18:25.612Z,22.10
2019-05-20T19:20:59.822Z,22.02
2019-05-20T19:23:32.714Z,22.00
2019-05-20T19:26:03.755Z,21.90
2019-05-20T19:28:36.637Z,21.84
2019-05-20T19:31:08.393Z,21.74
2019-05-20T19:33:39.740Z,21.69
2019-05-20T19:36:10.770Z,21.63
2019-05-20T19:38:43.763Z,21.54
2019-05-20T19:41:15.866Z,21.49
2019-05-20T19:43:47.178Z,21.41
2019-05-20T19:46:20.864Z,21.37
2019-05-20T19:48:53.141Z,21.31
2019-05-20T19:51:26.235Z,21.32
2019-05-20T19:53:58.911Z,21.31
2019-05-20T19:56:29.538Z,21.29
2019-05-20T19:59:00.684Z,21.35
2019-05-20T20:01:31.457Z,21.32
2019-05-20T20:04:02.661Z,21.33
2019-05-20T20:06:37.486Z,21.21
2019-05-20T20:09:08.944Z,21.15
2019-05-20T20:11:41.398Z,21.12
2019-05-20T20:14:13.442Z,21.08
2019-05-20T20:16:44.109Z,20.99
2019-05-20T20:19:17.404Z,20.94
2019-05-20T20:21:48.138Z,20.88
2019-05-20T20:24:22.651Z,20.84
2019-05-20T20:26:55.231Z,20.77
2019-05-20T20:29:27.484Z,20.73
2019-05-20T20:31:58.026Z,20.69
2019-05-20T20:34:32.986Z,20.68
2019-05-20T20:37:04.404Z,20.61
2019-05-20T20:39:34.936Z,20.56
2019-05-20T20:42:08.466Z,20.52
2019-05-20T20:44:39.879Z,20.50
2019-05-20T20:47:12.458Z,20.46
2019-05-20T20:49:43.492Z,20.45
2019-05-20T20:52:17.202Z,20.48
2019-05-20T20:54:50.183Z,20.40
2019-05-20T20:57:24.292Z,20.39
2019-05-20T20:59:55.743Z,20.35
2019-05-20T21:02:26.581Z,20.37
2019-05-20T21:04:57.257Z,20.32
2019-05-20T21:07:28.555Z,20.32
2019-05-20T21:09:59.708Z,20.27
2019-05-20T21:12:30.735Z,20.29
2019-05-20T21:15:05.760Z,20.26
2019-05-20T21:17:36.209Z,20.21
2019-05-20T21:20:09.285Z,20.18
2019-05-20T21:22:40.225Z,20.18
2019-05-20T21:25:11.159Z,20.10
2019-05-20T21:27:41.995Z,20.03
2019-05-20T21:30:14.923Z,19.99
2019-05-20T21:32:46.638Z,19.94
2019-05-20T21:35:18.038Z,19.91
2019-05-20T21:37:50.450Z,19.85
2019-05-20T21:40:21.083Z,19.87
2019-05-20T21:42:52.224Z,19.86
2019-05-20T21:45:23.474Z,19.84
2019-05-20T21:47:54.301Z,19.82
2019-05-20T21:50:28.413Z,19.78
2019-05-20T21:52:59.766Z,19.72
2019-05-20T21:55:31.315Z,19.68
2019-05-20T21:58:02.254Z,19.67
2019-05-20T22:00:38.921Z,19.59
2019-05-20T22:03:23.533Z,19.55
2019-05-20T22:05:44.690Z,19.56
2019-05-20T22:08:15.547Z,19.47
2019-05-20T22:10:47.276Z,19.44
2019-05-20T22:13:20.577Z,19.47
2019-05-20T22:15:53.458Z,19.39
2019-05-20T22:18:24.701Z,19.32
2019-05-20T22:20:56.066Z,19.29
2019-05-20T22:23:30.772Z,19.28
2019-05-20T22:26:01.618Z,19.25
2019-05-20T22:28:32.315Z,19.21
2019-05-20T22:31:04.713Z,19.20
2019-05-20T22:33:41.234Z,19.18
2019-05-20T22:36:07.933Z,19.18
2019-05-20T22:38:39.929Z,19.12
2019-05-20T22:41:13.064Z,19.10
2019-05-20T22:43:44.136Z,19.10
2019-05-20T22:46:16.787Z,19.12
2019-05-20T22:48:49.975Z,19.12
2019-05-20T22:51:23.788Z,19.03
2019-05-20T22:53:54.719Z,18.99
2019-05-20T22:56:25.557Z,18.96
2019-05-20T22:58:56.697Z,18.94
2019-05-20T23:01:28.590Z,18.87
2019-05-20T23:03:59.184Z,18.85
2019-05-20T23:06:32.388Z,18.79
2019-05-20T23:09:06.573Z,18.76
2019-05-20T23:11:37.034Z,18.71
2019-05-20T23:14:07.951Z,18.68
2019-05-20T23:16:38.892Z,18.65
2019-05-20T23:19:11.559Z,18.59
2019-05-20T23:21:42.093Z,18.55
2019-05-20T23:24:12.852Z,18.51
2019-05-20T23:26:43.956Z,18.49
2019-05-20T23:29:16.993Z,18.42
2019-05-20T23:31:48.405Z,18.40
2019-05-20T23:34:19.035Z,18.41
2019-05-20T23:36:49.763Z,18.39
2019-05-20T23:39:20.557Z,18.33
2019-05-20T23:41:51.979Z,18.27
2019-05-20T23:44:23.091Z,18.22
2019-05-20T23:46:55.369Z,18.22
2019-05-20T23:49:27.018Z,18.21
2019-05-20T23:51:58.063Z,18.15
2019-05-20T23:54:28.888Z,18.15
2019-05-20T23:57:01.878Z,18.12
2019-05-20T23:59:32.710Z,18.08
